Hereford, Hereford Municipal Airport (KHRX)

NameHereford Municipal Airport
CityHereford
CountryUnited States
ICAOKHRX
IATA
Altitude1155 m
CoordinatesGoogle Map
Live Air TrafficLiveATC.net
METARKHRX 170950Z AUTO 23006KT 7SM CLR 08/02 A3005 RMK AO2 T00800021
2019-10-17 09:50:00 Wind: Southwest (230°) 3.09 m/s - Visibility: 11265.38 m - Temperature: 8 °C - Dew point: 2 °C - Humidity: 66.2% - Pressure: 1017.61 hPa
Statistics

The table below shows the detailed information of all flights to/from Hereford, Hereford Municipal Airport (KHRX).